PST,Max TemperatureF,Mean TemperatureF,Min TemperatureF,Max Dew PointF,MeanDew PointF,Min DewpointF,Max Humidity, Mean Humidity, Min Humidity, Max Sea Level PressureIn, Mean Sea Level PressureIn, Min Sea Level PressureIn, Max VisibilityMiles, Mean VisibilityMiles, Min VisibilityMiles, Max Wind SpeedMPH, Mean Wind SpeedMPH, Max Gust SpeedMPH,PrecipitationIn, CloudCover, Events, WindDirDegrees
2013-11-1,85,69,53,55,45,33,72,44,16,30.09,30.01,29.92,10,10,10,8,2,12,0.00,0,,239
2013-11-2,78,66,54,58,49,41,72,52,31,29.98,29.93,29.88,10,10,10,15,3,18,0.00,1,,201
2013-11-3,69,64,59,56,53,50,84,72,59,29.92,29.88,29.83,10,10,9,14,6,18,0.00,5,,178
2013-11-4,68,65,61,53,49,47,67,60,52,29.94,29.86,29.80,10,10,10,14,6,17,0.00,5,,171
2013-11-5,81,66,51,49,34,7,83,45,6,30.12,30.05,29.95,10,10,9,24,5,33,0.00,0,,22
2013-11-6,80,64,48,48,34,15,52,31,9,30.19,30.13,30.07,10,10,10,9,3,13,0.00,1,,248
2013-11-7,84,68,51,52,36,20,59,34,9,30.11,30.04,29.99,10,10,10,8,1,10,0.00,3,,254
2013-11-8,74,63,52,58,48,36,69,52,34,30.03,29.99,29.94,10,10,6,13,3,16,0.00,0,,209
2013-11-9,76,64,52,57,52,35,96,60,23,30.07,30.03,30.00,10,3,0,12,2,14,0.00,5,Fog,169
2013-11-10,82,68,53,56,50,21,93,52,11,30.13,30.06,30.03,10,6,0,13,3,15,0.00,3,Fog,195
2013-11-11,76,64,51,56,50,42,83,57,31,30.13,30.07,30.02,10,10,8,9,2,12,0.00,1,,208
2013-11-12,76,66,55,54,51,47,86,61,36,30.16,30.09,30.05,10,8,5,7,1,9,0.00,4,,30
2013-11-13,90,72,54,52,47,36,83,50,16,30.04,29.95,29.87,10,10,7,10,2,13,0.00,0,,234
2013-11-14,86,71,56,57,47,35,67,43,19,29.91,29.85,29.77,10,10,8,12,3,15,0.00,1,,203
2013-11-15,69,65,60,57,54,52,90,75,59,29.77,29.73,29.68,10,9,7,17,7,22,0.00,5,,162
2013-11-16,68,63,58,54,50,46,78,62,45,29.94,29.83,29.76,10,10,9,14,6,21,T,5,Rain,166
2013-11-17,69,62,55,54,51,47,77,63,48,30.09,30.01,29.95,10,10,10,12,3,15,0.00,3,,183
2013-11-18,69,61,53,54,52,48,83,69,55,30.15,30.10,30.05,10,10,10,9,3,14,0.00,4,,294
2013-11-19,67,64,61,54,52,51,78,68,58,30.08,30.03,29.97,10,10,10,10,2,14,0.00,6,,259
2013-11-20,68,63,57,57,54,51,80,69,58,29.97,29.92,29.89,10,8,2,8,3,,0.00,7,Rain,157
2013-11-21,64,62,59,59,56,52,90,81,72,29.89,29.86,29.83,10,7,2,12,7,16,0.14,7,Rain,210
2013-11-22,64,60,55,52,42,38,86,63,40,29.95,29.88,29.83,10,10,10,17,6,25,0.01,5,Rain,78
2013-11-23,68,60,52,48,42,39,63,51,39,30.08,30.01,29.95,10,10,10,12,3,15,0.00,4,,179
2013-11-24,67,58,49,48,45,41,74,57,40,30.19,30.14,30.08,10,10,10,10,3,14,0.00,1,,255
2013-11-25,70,60,49,51,46,41,77,57,37,30.23,30.19,30.15,10,10,10,12,3,14,0.00,0,,224
2013-11-26,75,62,49,51,44,35,77,50,23,30.18,30.11,30.04,10,10,10,10,2,12,0.00,3,,248
2013-11-27,74,63,52,47,43,40,66,48,29,30.03,29.95,29.88,10,10,10,12,2,15,0.00,2,,214
2013-11-28,72,63,53,59,47,39,64,45,26,30.05,29.97,29.89,10,10,10,14,4,20,0.00,3,,181
2013-11-29,79,70,59,54,52,48,72,56,39,30.18,30.12,30.05,10,10,5,9,1,13,0.17,5,Rain,310
2013-11-30,78,66,55,51,50,45,77,54,31,30.18,30.13,30.06,10,10,10,10,2,13,0.00,3,,280